createdAt,value
2022-11-21T00:01:53.096Z,2.68
2022-11-21T00:04:19.368Z,2.76
2022-11-21T00:06:45.622Z,2.85
2022-11-21T00:09:11.877Z,2.50
2022-11-21T00:11:38.113Z,2.63
2022-11-21T00:14:04.353Z,2.55
2022-11-21T00:16:30.586Z,2.63
2022-11-21T00:18:56.819Z,2.74
2022-11-21T00:21:23.065Z,2.84
2022-11-21T00:23:49.303Z,2.76
2022-11-21T00:26:15.538Z,2.63
2022-11-21T00:28:41.799Z,2.73
2022-11-21T00:31:08.057Z,2.53
2022-11-21T00:33:34.297Z,2.42
2022-11-21T00:36:00.546Z,2.51
2022-11-21T00:38:26.781Z,2.56
2022-11-21T00:40:53.008Z,2.60
2022-11-21T00:43:19.244Z,2.56
2022-11-21T00:45:45.493Z,2.66
2022-11-21T00:48:11.745Z,2.66
2022-11-21T00:50:37.981Z,2.55
2022-11-21T00:53:04.291Z,2.52
2022-11-21T00:55:30.533Z,2.65
2022-11-21T00:57:56.772Z,2.87
2022-11-21T01:00:23.078Z,2.74
2022-11-21T01:02:49.333Z,2.73
2022-11-21T01:05:15.584Z,2.57
2022-11-21T01:07:41.867Z,2.55
2022-11-21T01:10:08.146Z,2.17
2022-11-21T01:12:34.399Z,2.36
2022-11-21T01:15:00.634Z,2.32
2022-11-21T01:17:26.892Z,2.49
2022-11-21T01:19:53.136Z,2.46
2022-11-21T01:22:19.388Z,2.40
2022-11-21T01:24:45.641Z,2.28
2022-11-21T01:27:11.878Z,2.35
2022-11-21T01:29:38.231Z,2.25
2022-11-21T01:32:04.466Z,2.44
2022-11-21T01:34:30.704Z,2.29
2022-11-21T01:36:56.960Z,2.36
2022-11-21T01:39:23.205Z,2.16
2022-11-21T01:41:49.454Z,2.44
2022-11-21T01:44:15.706Z,2.16
2022-11-21T01:46:41.953Z,2.19
2022-11-21T01:49:08.209Z,2.41
2022-11-21T01:51:34.557Z,2.47
2022-11-21T01:54:00.807Z,2.28
2022-11-21T01:56:27.047Z,2.29
2022-11-21T01:58:53.289Z,2.29
2022-11-21T02:01:19.548Z,2.38
2022-11-21T02:03:45.836Z,2.52
2022-11-21T02:06:12.089Z,2.19
2022-11-21T02:08:38.321Z,2.08
2022-11-21T02:11:04.561Z,2.39
2022-11-21T02:13:30.829Z,2.55
2022-11-21T02:15:57.094Z,2.25
2022-11-21T02:18:23.352Z,2.44
2022-11-21T02:20:49.610Z,2.50
2022-11-21T02:23:15.846Z,2.39
2022-11-21T02:25:42.078Z,2.24
2022-11-21T02:28:08.303Z,2.25
2022-11-21T02:30:34.575Z,2.53
2022-11-21T02:33:00.806Z,2.50
2022-11-21T02:35:27.052Z,2.41
2022-11-21T02:37:53.289Z,2.32
2022-11-21T02:40:19.549Z,2.48
2022-11-21T02:42:50.096Z,2.52
2022-11-21T02:45:18.708Z,2.69
2022-11-21T02:47:44.956Z,2.46
2022-11-21T02:50:11.204Z,2.49
2022-11-21T02:52:37.454Z,2.35
2022-11-21T02:55:03.682Z,2.78
2022-11-21T02:57:29.970Z,2.82
2022-11-21T02:59:56.245Z,2.73
2022-11-21T03:02:22.478Z,2.59
2022-11-21T03:04:48.737Z,2.84
2022-11-21T03:07:15.043Z,2.70
2022-11-21T03:09:41.320Z,2.81
2022-11-21T03:12:07.581Z,2.76
2022-11-21T03:14:33.814Z,2.81
2022-11-21T03:17:00.061Z,2.91
2022-11-21T03:19:26.314Z,2.77
2022-11-21T03:21:52.576Z,2.98
2022-11-21T03:24:18.836Z,2.95
2022-11-21T03:26:45.067Z,2.90
2022-11-21T03:29:11.306Z,2.64
2022-11-21T03:31:37.552Z,2.94
2022-11-21T03:34:03.823Z,2.65
2022-11-21T03:36:30.123Z,2.66
2022-11-21T03:38:56.362Z,2.98
2022-11-21T03:41:22.620Z,2.59
2022-11-21T03:43:48.857Z,2.59
2022-11-21T03:46:15.083Z,2.45
2022-11-21T03:48:41.336Z,2.42
2022-11-21T03:51:07.601Z,2.22
2022-11-21T03:53:33.837Z,2.16
2022-11-21T03:56:00.071Z,2.28
2022-11-21T03:58:26.315Z,2.07
2022-11-21T04:00:52.562Z,2.10
2022-11-21T04:03:18.817Z,2.27
2022-11-21T04:05:45.076Z,1.90
2022-11-21T04:08:11.314Z,2.06
2022-11-21T04:10:37.563Z,1.97
2022-11-21T04:13:03.865Z,1.96
2022-11-21T04:15:30.121Z,1.97
2022-11-21T04:17:56.381Z,1.92
2022-11-21T04:20:22.633Z,2.11
2022-11-21T04:22:48.867Z,1.96
2022-11-21T04:25:15.146Z,2.01
2022-11-21T04:27:41.427Z,1.77
2022-11-21T04:30:07.665Z,1.74
2022-11-21T04:32:33.917Z,1.76
2022-11-21T04:35:00.165Z,1.72
2022-11-21T04:37:26.409Z,1.82
2022-11-21T04:39:52.637Z,1.78
2022-11-21T04:42:18.886Z,1.85
2022-11-21T04:44:45.140Z,1.73
2022-11-21T04:47:11.389Z,1.85
2022-11-21T04:49:37.637Z,1.73
2022-11-21T04:52:03.914Z,1.99
2022-11-21T04:54:30.523Z,1.72
2022-11-21T04:56:57.006Z,1.67
2022-11-21T04:59:23.257Z,1.64
2022-11-21T05:01:49.509Z,1.59
2022-11-21T05:04:15.772Z,1.72
2022-11-21T05:06:42.026Z,1.50
2022-11-21T05:09:08.270Z,1.35
2022-11-21T05:11:34.510Z,1.54
2022-11-21T05:14:00.734Z,1.42
2022-11-21T05:16:27.001Z,1.55
2022-11-21T05:18:53.273Z,1.43
2022-11-21T05:21:19.501Z,1.41
2022-11-21T05:23:45.725Z,1.32
2022-11-21T05:26:11.954Z,1.26
2022-11-21T05:28:38.229Z,1.44
2022-11-21T05:31:04.481Z,1.24
2022-11-21T05:33:30.707Z,1.26
2022-11-21T05:35:56.984Z,1.22
2022-11-21T05:38:23.228Z,1.28
2022-11-21T05:40:49.510Z,1.35
2022-11-21T05:43:15.753Z,1.40
2022-11-21T05:45:42.001Z,1.21
2022-11-21T05:48:08.237Z,1.42
2022-11-21T05:50:34.458Z,1.15
2022-11-21T05:53:00.710Z,1.25
2022-11-21T05:55:26.956Z,1.26
2022-11-21T05:57:53.174Z,1.18
2022-11-21T06:00:19.426Z,1.20
2022-11-21T06:02:45.714Z,1.35
2022-11-21T06:05:11.959Z,1.24
2022-11-21T06:07:38.232Z,1.36
2022-11-21T06:10:04.519Z,1.53
2022-11-21T06:12:30.746Z,1.27
2022-11-21T06:14:56.973Z,1.22
2022-11-21T06:17:23.218Z,1.02
2022-11-21T06:19:49.449Z,1.23
2022-11-21T06:22:15.673Z,1.09
2022-11-21T06:24:41.897Z,1.12
2022-11-21T06:27:08.126Z,1.17
2022-11-21T06:29:34.397Z,1.17
2022-11-21T06:32:00.627Z,1.17
2022-11-21T06:34:27.232Z,1.12
2022-11-21T06:36:53.706Z,1.13
2022-11-21T06:39:19.958Z,1.42
2022-11-21T06:41:46.201Z,1.42
2022-11-21T06:44:12.429Z,1.28
2022-11-21T06:46:38.658Z,1.27
2022-11-21T06:49:04.896Z,1.27
2022-11-21T06:51:31.158Z,1.22
2022-11-21T06:53:57.413Z,1.25
2022-11-21T06:56:23.643Z,1.10
2022-11-21T06:58:49.867Z,1.12
2022-11-21T07:01:16.139Z,1.17
2022-11-21T07:03:42.394Z,1.23
2022-11-21T07:06:08.624Z,1.04
2022-11-21T07:08:34.856Z,1.22
2022-11-21T07:11:24.162Z,1.01
2022-11-21T07:13:47.289Z,1.23
2022-11-21T07:16:13.550Z,1.29
2022-11-21T07:18:39.785Z,1.39
2022-11-21T07:21:06.024Z,1.50
2022-11-21T07:23:32.253Z,1.42
2022-11-21T07:25:58.477Z,1.37
2022-11-21T07:28:24.706Z,1.35
2022-11-21T07:30:50.931Z,1.36
2022-11-21T07:33:17.171Z,1.78
2022-11-21T07:35:43.396Z,1.53
2022-11-21T07:38:09.653Z,1.50
2022-11-21T07:40:35.897Z,1.44
2022-11-21T07:43:04.414Z,1.57
2022-11-21T07:45:34.238Z,1.89
2022-11-21T07:48:00.474Z,1.96
2022-11-21T07:50:26.731Z,1.82
2022-11-21T07:52:52.971Z,1.66
2022-11-21T07:55:19.222Z,1.59
2022-11-21T07:57:45.460Z,1.65
2022-11-21T08:00:11.719Z,1.48
2022-11-21T08:02:37.957Z,1.62
2022-11-21T08:05:04.301Z,1.49
2022-11-21T08:07:30.670Z,1.65
2022-11-21T08:09:57.010Z,1.60
2022-11-21T08:12:23.392Z,1.74
2022-11-21T08:14:49.677Z,1.64
2022-11-21T08:17:15.938Z,1.78
2022-11-21T08:19:42.171Z,1.85
2022-11-21T08:22:08.424Z,1.91
2022-11-21T08:24:34.670Z,1.96
2022-11-21T08:27:00.933Z,1.96
2022-11-21T08:29:27.390Z,2.00
2022-11-21T08:31:53.798Z,1.99
2022-11-21T08:34:20.062Z,2.01
2022-11-21T08:36:46.293Z,2.17
2022-11-21T08:39:12.546Z,2.03
2022-11-21T08:41:38.794Z,2.03
2022-11-21T08:44:07.542Z,2.13
2022-11-21T08:46:36.077Z,2.00
2022-11-21T08:49:02.314Z,2.06
2022-11-21T08:51:28.574Z,2.03
2022-11-21T08:53:54.809Z,1.59
2022-11-21T08:56:21.035Z,1.70
2022-11-21T08:58:47.283Z,1.60
2022-11-21T09:01:13.533Z,1.54
2022-11-21T09:03:39.776Z,1.59
2022-11-21T09:06:06.031Z,1.56
2022-11-21T09:08:32.277Z,1.41
2022-11-21T09:10:59.099Z,1.82
2022-11-21T09:13:25.489Z,1.64
2022-11-21T09:15:51.741Z,1.72
2022-11-21T09:18:17.993Z,1.70
2022-11-21T09:20:44.296Z,1.69
2022-11-21T09:23:10.589Z,1.64
2022-11-21T09:25:36.837Z,1.49
2022-11-21T09:28:03.099Z,1.59
2022-11-21T09:30:29.370Z,1.83
2022-11-21T09:32:55.605Z,1.71
2022-11-21T09:35:21.860Z,1.69
2022-11-21T09:37:48.105Z,1.60
2022-11-21T09:40:14.454Z,1.63
2022-11-21T09:42:40.723Z,1.57
2022-11-21T09:45:06.979Z,1.39
2022-11-21T09:47:33.287Z,1.44
2022-11-21T09:49:59.544Z,1.58
2022-11-21T09:52:25.801Z,1.59
2022-11-21T09:54:52.119Z,1.72
2022-11-21T09:57:18.356Z,1.50
2022-11-21T09:59:44.618Z,1.35
2022-11-21T10:02:10.861Z,1.21
2022-11-21T10:04:37.167Z,1.42
2022-11-21T10:07:03.486Z,1.53
2022-11-21T10:09:29.744Z,1.44
2022-11-21T10:11:56.009Z,1.41
2022-11-21T10:14:22.283Z,1.22
2022-11-21T10:16:48.510Z,1.27
2022-11-21T10:19:14.762Z,1.28
2022-11-21T10:21:41.017Z,1.23
2022-11-21T10:24:07.250Z,1.08
2022-11-21T10:26:33.489Z,1.19
2022-11-21T10:28:59.729Z,1.38
2022-11-21T10:31:25.965Z,1.22
2022-11-21T10:33:52.194Z,1.25
2022-11-21T10:36:18.437Z,1.07
2022-11-21T10:38:44.684Z,1.17
2022-11-21T10:41:10.920Z,1.06
2022-11-21T10:43:37.154Z,1.13
2022-11-21T10:46:03.390Z,0.93
2022-11-21T10:48:29.625Z,1.03
2022-11-21T10:50:55.892Z,1.06
2022-11-21T10:53:22.121Z,0.96
2022-11-21T10:55:48.361Z,1.14
2022-11-21T10:58:14.613Z,0.86
2022-11-21T11:00:40.890Z,1.07
2022-11-21T11:03:07.147Z,0.95
2022-11-21T11:05:33.380Z,1.17
2022-11-21T11:07:59.614Z,1.27
2022-11-21T11:10:28.212Z,1.20
2022-11-21T11:12:54.806Z,1.01
2022-11-21T11:15:21.048Z,0.86
2022-11-21T11:17:48.069Z,0.85
2022-11-21T11:20:14.366Z,1.00
2022-11-21T11:22:40.593Z,0.94
2022-11-21T11:25:06.840Z,0.92
2022-11-21T11:27:33.075Z,0.81
2022-11-21T11:29:59.324Z,0.74
2022-11-21T11:32:25.565Z,0.80
2022-11-21T11:34:51.795Z,0.67
2022-11-21T11:37:18.028Z,0.64
2022-11-21T11:39:44.280Z,0.67
2022-11-21T11:42:16.390Z,0.72
2022-11-21T11:44:43.082Z,0.57
2022-11-21T11:47:09.311Z,0.64
2022-11-21T11:49:35.690Z,0.69
2022-11-21T11:52:02.041Z,0.87
2022-11-21T11:54:28.298Z,4.07
2022-11-21T11:56:54.574Z,1.46
2022-11-21T11:59:20.828Z,0.68
2022-11-21T12:01:47.104Z,0.76
2022-11-21T12:04:13.373Z,0.75
2022-11-21T12:07:26.117Z,1.16
2022-11-21T12:09:25.873Z,0.84
2022-11-21T12:11:52.246Z,0.92
2022-11-21T12:14:18.474Z,0.86
2022-11-21T12:16:44.716Z,0.78
2022-11-21T12:19:10.951Z,0.87
2022-11-21T12:21:37.362Z,0.86
2022-11-21T12:24:03.656Z,0.81
2022-11-21T12:26:29.936Z,0.95
2022-11-21T12:28:56.231Z,0.85
2022-11-21T12:31:22.489Z,0.93
2022-11-21T12:33:48.738Z,0.78
2022-11-21T12:36:18.193Z,0.82
2022-11-21T12:38:45.313Z,0.84
2022-11-21T12:41:11.613Z,0.83
2022-11-21T12:43:37.870Z,1.00
2022-11-21T12:46:04.121Z,1.02
2022-11-21T12:48:30.347Z,0.94
2022-11-21T12:50:56.583Z,1.09
2022-11-21T12:53:22.825Z,1.10
2022-11-21T12:55:49.072Z,1.09
2022-11-21T12:58:15.323Z,0.98
2022-11-21T13:00:41.560Z,0.97
2022-11-21T13:03:07.787Z,0.82
2022-11-21T13:05:34.043Z,0.85
2022-11-21T13:08:00.324Z,0.86
2022-11-21T13:10:26.574Z,0.84
2022-11-21T13:12:52.869Z,0.92
2022-11-21T13:15:19.101Z,0.92
2022-11-21T13:17:45.325Z,1.06
2022-11-21T13:20:11.571Z,1.13
2022-11-21T13:22:37.844Z,1.35
2022-11-21T13:25:04.117Z,1.25
2022-11-21T13:27:36.473Z,1.07
2022-11-21T13:30:04.645Z,1.24
2022-11-21T13:32:30.908Z,1.50
2022-11-21T13:34:57.159Z,1.40
2022-11-21T13:37:23.420Z,1.70
2022-11-21T13:39:49.679Z,1.38
2022-11-21T13:42:19.986Z,1.43
2022-11-21T13:44:46.987Z,1.54
2022-11-21T13:47:13.324Z,1.50
2022-11-21T13:49:39.579Z,1.60
2022-11-21T13:52:05.826Z,1.52
2022-11-21T13:54:32.074Z,1.56
2022-11-21T13:56:58.314Z,1.51
2022-11-21T13:59:24.555Z,1.40
2022-11-21T14:01:50.809Z,1.53
2022-11-21T14:04:17.160Z,1.56
2022-11-21T14:06:43.605Z,1.45
2022-11-21T14:09:09.923Z,1.62
2022-11-21T14:11:36.176Z,1.52
2022-11-21T14:14:02.433Z,1.44
2022-11-21T14:16:28.702Z,1.49
2022-11-21T14:18:54.942Z,1.28
2022-11-21T14:21:21.174Z,1.30
2022-11-21T14:23:47.425Z,1.27
2022-11-21T14:26:13.668Z,1.30
2022-11-21T14:28:39.959Z,1.39
2022-11-21T14:31:06.213Z,1.32
2022-11-21T14:33:32.534Z,1.27
2022-11-21T14:35:58.816Z,1.35
2022-11-21T14:38:25.065Z,1.25
2022-11-21T14:40:51.319Z,1.47
2022-11-21T14:43:17.554Z,1.70
2022-11-21T14:45:43.813Z,1.40
2022-11-21T14:48:10.150Z,1.43
2022-11-21T14:50:36.402Z,1.38
2022-11-21T14:53:02.655Z,1.42
2022-11-21T14:55:30.659Z,1.42
2022-11-21T14:57:57.421Z,1.36
2022-11-21T15:03:09.943Z,1.58
2022-11-21T15:08:46.673Z,1.39
2022-11-21T15:11:08.673Z,1.46
2022-11-21T15:13:51.540Z,1.42
2022-11-21T15:16:21.122Z,1.56
2022-11-21T15:18:47.419Z,1.54
2022-11-21T15:21:13.681Z,1.35
2022-11-21T15:23:39.912Z,1.52
2022-11-21T15:26:06.182Z,1.58
2022-11-21T15:28:33.454Z,1.51
2022-11-21T15:30:59.698Z,1.78
2022-11-21T15:33:25.939Z,1.78
2022-11-21T15:35:52.171Z,1.91
2022-11-21T15:38:18.411Z,2.13
2022-11-21T15:40:46.813Z,1.95
2022-11-21T15:43:13.146Z,2.03
2022-11-21T15:45:39.385Z,1.81
2022-11-21T15:48:06.032Z,2.21
2022-11-21T15:50:32.270Z,2.33
2022-11-21T15:52:58.535Z,2.46
2022-11-21T15:55:24.787Z,2.60
2022-11-21T15:57:51.306Z,2.73
2022-11-21T16:00:17.626Z,2.49
2022-11-21T16:02:43.873Z,2.60
2022-11-21T16:05:10.137Z,2.79
2022-11-21T16:07:36.459Z,2.87
2022-11-21T16:10:02.738Z,2.95
2022-11-21T16:12:28.978Z,3.20
2022-11-21T16:14:55.205Z,3.11
2022-11-21T16:17:21.438Z,2.78
2022-11-21T16:19:47.697Z,3.23
2022-11-21T16:22:13.944Z,2.90
2022-11-21T16:24:40.189Z,3.01
2022-11-21T16:27:06.420Z,3.19
2022-11-21T16:29:32.658Z,3.02
2022-11-21T16:31:58.900Z,2.54
2022-11-21T16:34:25.245Z,2.55
2022-11-21T16:36:51.493Z,2.52
2022-11-21T16:39:18.646Z,2.23
2022-11-21T16:41:46.078Z,2.56
2022-11-21T16:44:12.442Z,2.20
2022-11-21T16:46:38.692Z,2.39
2022-11-21T16:49:04.929Z,2.50
2022-11-21T16:51:31.161Z,2.40
2022-11-21T16:53:57.440Z,2.25
2022-11-21T16:56:23.707Z,2.24
2022-11-21T16:58:49.964Z,2.01
2022-11-21T17:01:16.297Z,2.09
2022-11-21T17:03:42.612Z,2.07
2022-11-21T17:06:08.873Z,2.07
2022-11-21T17:08:35.134Z,1.95
2022-11-21T17:11:01.598Z,1.93
2022-11-21T17:13:27.954Z,1.70
2022-11-21T17:15:54.243Z,1.65
2022-11-21T17:18:20.485Z,1.58
2022-11-21T17:20:46.732Z,1.90
2022-11-21T17:23:12.976Z,1.57
2022-11-21T17:25:39.235Z,1.69
2022-11-21T17:28:05.490Z,1.44
2022-11-21T17:30:31.739Z,1.41
2022-11-21T17:32:57.980Z,1.50
2022-11-21T17:35:24.211Z,1.43
2022-11-21T17:37:50.452Z,1.31
2022-11-21T17:40:16.688Z,1.39
2022-11-21T17:42:42.937Z,1.40
2022-11-21T17:45:09.177Z,1.35
2022-11-21T17:47:35.411Z,1.46
2022-11-21T17:50:05.932Z,1.38
2022-11-21T17:52:32.710Z,1.17
2022-11-21T17:54:58.964Z,1.37
2022-11-21T17:57:25.197Z,1.38
2022-11-21T17:59:51.445Z,1.57
2022-11-21T18:02:17.783Z,1.30
2022-11-21T18:04:44.158Z,1.52
2022-11-21T18:07:10.435Z,2.26
2022-11-21T18:09:36.702Z,2.58
2022-11-21T18:12:03.032Z,3.85
2022-11-21T18:14:29.600Z,2.38
2022-11-21T18:16:56.073Z,3.36
2022-11-21T18:19:22.353Z,11.56
2022-11-21T18:21:48.711Z,5.73
2022-11-21T18:24:14.965Z,7.77
2022-11-21T18:26:41.203Z,6.01
2022-11-21T18:29:34.680Z,6.22
2022-11-21T18:31:53.673Z,3.64
2022-11-21T18:34:19.914Z,5.79
2022-11-21T18:36:47.048Z,6.75
2022-11-21T18:39:15.240Z,4.38
2022-11-21T18:41:41.848Z,3.12
2022-11-21T18:44:08.122Z,3.48
2022-11-21T18:46:34.384Z,7.75
2022-11-21T18:49:05.414Z,14.19
2022-11-21T18:51:32.445Z,6.39
2022-11-21T18:53:58.694Z,7.43
2022-11-21T18:56:24.951Z,6.64
2022-11-21T18:58:55.563Z,6.00
2022-11-21T19:01:24.552Z,5.04
2022-11-21T19:03:50.853Z,5.04
2022-11-21T19:06:17.150Z,6.60
2022-11-21T19:08:43.389Z,10.09
2022-11-21T19:11:09.638Z,9.92
2022-11-21T19:13:35.886Z,8.01
2022-11-21T19:16:02.132Z,10.57
2022-11-21T19:18:28.387Z,4.37
2022-11-21T19:20:54.658Z,6.98
2022-11-21T19:23:20.908Z,7.34
2022-11-21T19:25:47.139Z,8.07
2022-11-21T19:28:13.395Z,10.50
2022-11-21T19:30:39.646Z,5.04
2022-11-21T19:33:05.888Z,4.13
2022-11-21T19:35:32.150Z,6.39
2022-11-21T19:37:58.401Z,5.22
2022-11-21T19:40:24.742Z,5.28
2022-11-21T19:42:50.979Z,3.88
2022-11-21T19:45:17.205Z,3.10
2022-11-21T19:47:43.443Z,3.71
2022-11-21T19:50:09.674Z,2.85
2022-11-21T19:52:35.917Z,2.89
2022-11-21T19:55:02.184Z,2.72
2022-11-21T19:57:28.424Z,2.69
2022-11-21T19:59:54.673Z,2.62
2022-11-21T20:02:20.911Z,2.33
2022-11-21T20:04:47.154Z,3.22
2022-11-21T20:07:13.436Z,5.17
2022-11-21T20:09:40.165Z,3.22
2022-11-21T20:12:06.919Z,2.44
2022-11-21T20:14:33.158Z,1.85
2022-11-21T20:16:59.401Z,1.78
2022-11-21T20:19:25.637Z,1.93
2022-11-21T20:21:51.881Z,4.91
2022-11-21T20:24:18.128Z,4.61
2022-11-21T20:26:44.378Z,2.06
2022-11-21T20:29:10.626Z,1.97
2022-11-21T20:31:36.880Z,2.16
2022-11-21T20:34:03.137Z,2.11
2022-11-21T20:36:29.376Z,2.16
2022-11-21T20:38:55.628Z,1.96
2022-11-21T20:41:21.867Z,2.02
2022-11-21T20:44:44.648Z,2.32
2022-11-21T20:46:34.354Z,4.53
2022-11-21T20:49:00.888Z,8.32
2022-11-21T20:54:13.386Z,9.95
2022-11-21T20:56:43.830Z,8.82
2022-11-21T20:59:10.712Z,9.94
2022-11-21T21:01:37.017Z,8.77
2022-11-21T21:04:03.382Z,11.60
2022-11-21T21:06:29.618Z,13.05
2022-11-21T21:08:55.878Z,10.99
2022-11-21T21:11:49.715Z,8.22
2022-11-21T21:14:08.350Z,9.03
2022-11-21T21:16:34.601Z,7.74
2022-11-21T21:19:00.868Z,9.86
2022-11-21T21:21:27.127Z,7.78
2022-11-21T21:23:53.383Z,5.34
2022-11-21T21:26:19.642Z,5.53
2022-11-21T21:28:45.891Z,4.39
2022-11-21T21:31:12.143Z,3.54
2022-11-21T21:33:38.377Z,3.62
2022-11-21T21:36:04.627Z,3.56
2022-11-21T21:38:30.858Z,3.50
2022-11-21T21:40:57.101Z,3.80
2022-11-21T21:43:23.357Z,3.55
2022-11-21T21:45:49.690Z,3.51
2022-11-21T21:48:15.937Z,4.68
2022-11-21T21:50:42.193Z,4.76
2022-11-21T21:53:08.435Z,5.48
2022-11-21T21:55:34.680Z,5.52
2022-11-21T21:58:00.913Z,6.07
2022-11-21T22:00:27.148Z,5.99
2022-11-21T22:02:53.382Z,5.62
2022-11-21T22:05:19.637Z,5.91
2022-11-21T22:07:45.988Z,6.10
2022-11-21T22:10:12.274Z,6.00
2022-11-21T22:12:43.670Z,5.93
2022-11-21T22:15:10.305Z,5.79
2022-11-21T22:17:36.543Z,5.02
2022-11-21T22:20:02.843Z,4.76
2022-11-21T22:22:29.078Z,3.79
2022-11-21T22:24:55.327Z,1.98
2022-11-21T22:27:21.561Z,1.88
2022-11-21T22:29:47.822Z,1.79
2022-11-21T22:32:18.300Z,1.63
2022-11-21T22:34:45.967Z,1.19
2022-11-21T22:37:12.197Z,1.12
2022-11-21T22:39:38.450Z,1.26
2022-11-21T22:42:04.706Z,1.38
2022-11-21T22:44:31.228Z,1.36
2022-11-21T22:46:57.557Z,1.17
2022-11-21T22:49:23.781Z,1.22
2022-11-21T22:51:50.032Z,1.06
2022-11-21T22:54:16.274Z,1.28
2022-11-21T22:56:42.501Z,1.12
2022-11-21T22:59:08.825Z,1.14
2022-11-21T23:01:35.209Z,1.15
2022-11-21T23:04:01.495Z,1.19
2022-11-21T23:06:27.716Z,1.29
2022-11-21T23:08:53.948Z,1.24
2022-11-21T23:11:20.171Z,1.19
2022-11-21T23:13:46.418Z,1.49
2022-11-21T23:16:12.664Z,1.62
2022-11-21T23:18:38.894Z,1.46
2022-11-21T23:21:05.130Z,1.60
2022-11-21T23:23:31.402Z,1.64
2022-11-21T23:25:57.633Z,1.65
2022-11-21T23:28:23.884Z,1.86
2022-11-21T23:30:50.145Z,2.08
2022-11-21T23:33:16.398Z,1.86
2022-11-21T23:35:42.681Z,2.11
2022-11-21T23:38:08.946Z,1.61
2022-11-21T23:40:35.195Z,1.73
2022-11-21T23:43:01.452Z,1.83
2022-11-21T23:45:27.687Z,1.84
2022-11-21T23:47:53.934Z,1.75
2022-11-21T23:50:20.312Z,1.80
2022-11-21T23:52:46.583Z,1.97
2022-11-21T23:55:12.910Z,2.05
2022-11-21T23:57:39.170Z,1.77
